createdAt,value
2024-05-09T00:00:56.442Z,100.00
2024-05-09T00:03:25.840Z,100.00
2024-05-09T00:05:55.264Z,100.00
2024-05-09T00:08:24.742Z,100.00
2024-05-09T00:10:56.900Z,100.00
2024-05-09T00:13:26.311Z,100.00
2024-05-09T00:15:55.702Z,100.00
2024-05-09T00:18:25.289Z,100.00
2024-05-09T00:20:54.869Z,100.00
2024-05-09T00:23:24.272Z,100.00
2024-05-09T00:25:56.332Z,100.00
2024-05-09T00:28:25.744Z,100.00
2024-05-09T00:30:55.243Z,100.00
2024-05-09T00:33:24.815Z,100.00
2024-05-09T00:35:54.303Z,100.00
2024-05-09T00:38:23.721Z,100.00
2024-05-09T00:40:55.669Z,100.00
2024-05-09T00:43:25.021Z,100.00
2024-05-09T00:45:56.859Z,100.00
2024-05-09T00:48:26.840Z,100.00
2024-05-09T00:50:57.649Z,100.00
2024-05-09T00:53:27.623Z,100.00
2024-05-09T00:56:00.187Z,100.00
2024-05-09T00:58:31.705Z,100.00
2024-05-09T01:01:03.980Z,100.00
2024-05-09T01:03:33.554Z,100.00
2024-05-09T01:06:03.207Z,100.00
2024-05-09T01:08:32.580Z,100.00
2024-05-09T01:11:04.650Z,100.00
2024-05-09T01:13:34.023Z,100.00
2024-05-09T01:16:03.557Z,100.00
2024-05-09T01:18:33.014Z,100.00
2024-05-09T01:21:02.631Z,100.00
2024-05-09T01:23:34.628Z,100.00
2024-05-09T01:26:04.215Z,100.00
2024-05-09T01:28:33.610Z,100.00
2024-05-09T01:31:02.996Z,100.00
2024-05-09T01:33:32.795Z,100.00
2024-05-09T01:35:59.953Z,100.00
2024-05-09T01:38:29.666Z,100.00
2024-05-09T01:41:01.733Z,100.00
2024-05-09T01:43:31.092Z,100.00
2024-05-09T01:46:00.422Z,100.00
2024-05-09T01:48:29.985Z,100.00
2024-05-09T01:50:59.405Z,100.00
2024-05-09T01:53:28.782Z,100.00
2024-05-09T01:56:00.891Z,100.00
2024-05-09T01:58:31.017Z,100.00
2024-05-09T02:01:00.414Z,100.00
2024-05-09T02:03:30.015Z,100.00
2024-05-09T02:05:59.554Z,100.00
2024-05-09T02:08:29.015Z,100.00
2024-05-09T02:11:01.123Z,100.00
2024-05-09T02:13:30.621Z,100.00
2024-05-09T02:15:59.997Z,100.00
2024-05-09T02:18:29.380Z,100.00
2024-05-09T02:20:58.841Z,100.00
2024-05-09T02:23:28.258Z,100.00
2024-05-09T02:25:57.713Z,100.00
2024-05-09T02:28:29.662Z,100.00
2024-05-09T02:30:59.010Z,100.00
2024-05-09T02:33:28.583Z,100.00
2024-05-09T02:35:58.110Z,100.00
2024-05-09T02:38:24.828Z,100.00
2024-05-09T02:40:54.201Z,100.00
2024-05-09T02:43:20.941Z,100.00
2024-05-09T02:45:52.919Z,100.00
2024-05-09T02:48:19.872Z,100.00
2024-05-09T02:50:49.431Z,100.00
2024-05-09T02:53:16.371Z,100.00
2024-05-09T02:55:45.875Z,100.00
2024-05-09T02:58:12.600Z,100.00
2024-05-09T03:00:43.152Z,100.00
2024-05-09T03:03:14.745Z,100.00
2024-05-09T03:05:45.570Z,100.00
2024-05-09T03:08:12.736Z,100.00
2024-05-09T03:10:42.604Z,100.00
2024-05-09T03:13:12.242Z,100.00
2024-05-09T03:15:42.518Z,100.00
2024-05-09T03:18:09.961Z,100.00
2024-05-09T03:20:43.840Z,100.00
2024-05-09T03:23:10.874Z,100.00
2024-05-09T03:25:40.408Z,100.00
2024-05-09T03:28:07.233Z,100.00
2024-05-09T03:30:41.712Z,100.00
2024-05-09T03:33:10.865Z,100.00
2024-05-09T03:35:43.253Z,100.00
2024-05-09T03:38:12.864Z,100.00
2024-05-09T03:40:47.519Z,100.00
2024-05-09T03:43:17.660Z,100.00
2024-05-09T03:45:47.673Z,100.00
2024-05-09T03:48:14.574Z,100.00
2024-05-09T03:50:47.009Z,100.00
2024-05-09T03:53:14.675Z,100.00
2024-05-09T03:55:44.300Z,100.00
2024-05-09T03:58:12.997Z,100.00
2024-05-09T04:00:42.712Z,100.00
2024-05-09T04:03:11.656Z,100.00
2024-05-09T04:05:43.891Z,100.00
2024-05-09T04:08:14.262Z,100.00
2024-05-09T04:10:44.174Z,100.00
2024-05-09T04:13:11.225Z,100.00
2024-05-09T04:15:40.605Z,100.00
2024-05-09T04:18:07.627Z,100.00
2024-05-09T04:20:39.936Z,100.00
2024-05-09T04:23:14.352Z,100.00
2024-05-09T04:25:46.676Z,100.00
2024-05-09T04:28:14.012Z,100.00
2024-05-09T04:30:43.654Z,100.00
2024-05-09T04:33:13.246Z,100.00
2024-05-09T04:35:44.986Z,100.00
2024-05-09T04:38:15.552Z,100.00
2024-05-09T04:40:45.499Z,100.00
2024-05-09T04:43:17.024Z,100.00
2024-05-09T04:45:46.434Z,100.00
2024-05-09T04:48:13.493Z,100.00
2024-05-09T04:50:43.037Z,100.00
2024-05-09T04:53:14.723Z,100.00
2024-05-09T04:55:46.817Z,100.00
2024-05-09T04:58:13.710Z,100.00
2024-05-09T05:00:43.264Z,100.00
2024-05-09T05:03:14.299Z,100.00
2024-05-09T05:05:46.299Z,100.00
2024-05-09T05:08:14.167Z,100.00
2024-05-09T05:10:47.336Z,100.00
2024-05-09T05:13:20.737Z,100.00
2024-05-09T05:15:53.582Z,100.00
2024-05-09T05:18:21.166Z,100.00
2024-05-09T05:20:50.904Z,100.00
2024-05-09T05:23:22.213Z,100.00
2024-05-09T05:25:53.483Z,100.00
2024-05-09T05:28:23.611Z,100.00
2024-05-09T05:30:50.544Z,100.00
2024-05-09T05:33:22.330Z,100.00
2024-05-09T05:35:49.621Z,100.00
2024-05-09T05:38:20.039Z,100.00
2024-05-09T05:40:48.726Z,100.00
2024-05-09T05:43:23.542Z,100.00
2024-05-09T05:45:50.281Z,100.00
2024-05-09T05:48:19.847Z,100.00
2024-05-09T05:50:46.882Z,100.00
2024-05-09T05:53:16.522Z,100.00
2024-05-09T05:55:43.401Z,100.00
2024-05-09T05:58:14.347Z,100.00
2024-05-09T06:00:44.110Z,100.00
2024-05-09T06:03:14.894Z,100.00
2024-05-09T06:05:43.576Z,100.00
2024-05-09T06:08:13.422Z,100.00
2024-05-09T06:10:41.364Z,100.00
2024-05-09T06:13:12.391Z,99.60
2024-05-09T06:15:39.866Z,97.83
2024-05-09T06:18:12.860Z,95.60
2024-05-09T06:20:41.525Z,95.04
2024-05-09T06:23:12.543Z,95.07
2024-05-09T06:25:39.958Z,93.88
2024-05-09T06:28:09.646Z,91.89
2024-05-09T06:30:40.316Z,89.66
2024-05-09T06:33:16.073Z,89.23
2024-05-09T06:35:43.878Z,86.53
2024-05-09T06:38:13.670Z,86.20
2024-05-09T06:40:42.614Z,84.62
2024-05-09T06:43:14.055Z,83.90
2024-05-09T06:45:41.443Z,82.93
2024-05-09T06:48:14.461Z,79.42
2024-05-09T06:50:41.513Z,77.56
2024-05-09T06:53:11.262Z,76.63
2024-05-09T06:55:38.272Z,70.23
2024-05-09T06:58:08.975Z,71.43
2024-05-09T07:00:39.520Z,71.86
2024-05-09T07:03:11.744Z,71.43
2024-05-09T07:05:42.518Z,69.29
2024-05-09T07:08:12.292Z,69.20
2024-05-09T07:10:39.162Z,68.21
2024-05-09T07:13:11.891Z,64.80
2024-05-09T07:15:39.095Z,68.04
2024-05-09T07:18:13.847Z,67.92
2024-05-09T07:20:43.694Z,67.29
2024-05-09T07:23:13.998Z,69.02
2024-05-09T07:25:41.815Z,69.69
2024-05-09T07:28:14.010Z,66.89
2024-05-09T07:30:40.926Z,67.15
2024-05-09T07:33:12.109Z,63.36
2024-05-09T07:35:41.713Z,62.44
2024-05-09T07:38:11.268Z,62.00
2024-05-09T07:40:41.743Z,61.90
2024-05-09T07:43:11.474Z,60.39
2024-05-09T07:45:50.659Z,57.51
2024-05-09T07:52:38.096Z,57.81
2024-05-09T07:53:48.213Z,59.98
2024-05-09T07:56:22.903Z,59.19
2024-05-09T07:58:52.157Z,57.83
2024-05-09T08:01:22.306Z,57.31
2024-05-09T08:03:49.419Z,56.65
2024-05-09T08:06:19.026Z,57.35
2024-05-09T08:08:48.547Z,55.53
2024-05-09T08:11:18.117Z,54.07
2024-05-09T08:13:44.889Z,53.75
2024-05-09T08:16:15.905Z,54.71
2024-05-09T08:18:42.840Z,52.43
2024-05-09T08:21:12.303Z,55.00
2024-05-09T08:23:39.038Z,52.57
2024-05-09T08:26:11.014Z,50.95
2024-05-09T08:28:37.778Z,51.95
2024-05-09T08:31:07.847Z,51.45
2024-05-09T08:33:34.939Z,50.66
2024-05-09T08:36:04.473Z,49.37
2024-05-09T08:38:31.235Z,50.04
2024-05-09T08:41:00.576Z,48.45
2024-05-09T08:43:30.334Z,48.92
2024-05-09T08:46:01.571Z,47.69
2024-05-09T08:48:29.995Z,48.53
2024-05-09T08:51:01.049Z,48.14
2024-05-09T08:53:27.916Z,49.30
2024-05-09T08:55:57.871Z,47.30
2024-05-09T08:58:25.822Z,44.95
2024-05-09T09:01:00.183Z,44.33
2024-05-09T09:03:29.323Z,44.89
2024-05-09T09:06:01.644Z,43.37
2024-05-09T09:08:28.411Z,44.18
2024-05-09T09:11:00.240Z,44.07
2024-05-09T09:13:27.821Z,43.43
2024-05-09T09:16:01.029Z,41.81
2024-05-09T09:18:29.328Z,41.33
2024-05-09T09:20:59.251Z,42.89
2024-05-09T09:23:28.308Z,44.70
2024-05-09T09:26:01.172Z,44.33
2024-05-09T09:28:28.162Z,42.89
2024-05-09T09:31:04.278Z,39.32
2024-05-09T09:33:32.089Z,38.34
2024-05-09T09:36:02.037Z,38.00
2024-05-09T09:38:31.461Z,36.57
2024-05-09T09:41:07.378Z,35.87
2024-05-09T09:43:35.926Z,35.84
2024-05-09T09:46:10.813Z,37.25
2024-05-09T09:48:41.529Z,38.98
2024-05-09T09:51:11.711Z,40.59
2024-05-09T09:53:38.711Z,40.69
2024-05-09T09:56:10.633Z,40.99
2024-05-09T09:58:39.568Z,41.17
2024-05-09T10:01:11.644Z,40.35
2024-05-09T10:03:38.888Z,40.53
2024-05-09T10:06:10.295Z,40.90
2024-05-09T10:08:37.987Z,41.42
2024-05-09T10:11:07.790Z,42.13
2024-05-09T10:13:34.969Z,44.13
2024-05-09T10:16:13.420Z,43.60
2024-05-09T10:18:41.060Z,43.01
2024-05-09T10:21:20.602Z,41.87
2024-05-09T10:23:57.294Z,41.28
2024-05-09T10:26:33.726Z,42.95
2024-05-09T10:29:03.175Z,43.35
2024-05-09T10:31:35.128Z,43.03
2024-05-09T10:34:05.382Z,44.38
2024-05-09T10:36:32.367Z,44.64
2024-05-09T10:39:02.321Z,42.60
2024-05-09T10:41:29.222Z,40.98
2024-05-09T10:43:58.583Z,40.39
2024-05-09T10:46:25.414Z,42.35
2024-05-09T10:48:57.645Z,42.36
2024-05-09T10:51:24.699Z,42.23
2024-05-09T10:53:54.079Z,42.20
2024-05-09T10:56:20.802Z,40.24
2024-05-09T10:58:50.313Z,42.25
2024-05-09T11:01:17.172Z,41.15
2024-05-09T11:03:50.658Z,40.95
2024-05-09T11:06:20.315Z,41.93
2024-05-09T11:08:50.311Z,40.45
2024-05-09T11:11:17.417Z,41.64
2024-05-09T11:13:46.791Z,39.92
2024-05-09T11:16:19.772Z,38.39
2024-05-09T11:18:56.285Z,37.24
2024-05-09T11:21:26.705Z,37.33
2024-05-09T11:23:56.347Z,38.99
2024-05-09T11:26:25.072Z,38.28
2024-05-09T11:28:54.722Z,37.58
2024-05-09T11:31:21.756Z,38.54
2024-05-09T11:33:51.534Z,37.25
2024-05-09T11:36:18.430Z,38.76
2024-05-09T11:38:50.378Z,37.49
2024-05-09T11:41:17.767Z,36.20
2024-05-09T11:43:47.353Z,36.92
2024-05-09T11:46:14.544Z,35.53
2024-05-09T11:48:44.318Z,35.45
2024-05-09T11:51:11.276Z,35.53
2024-05-09T11:53:40.589Z,35.02
2024-05-09T11:56:11.872Z,35.49
2024-05-09T11:58:41.556Z,35.19
2024-05-09T12:01:08.502Z,34.30
2024-05-09T12:03:38.257Z,34.67
2024-05-09T12:06:06.050Z,32.92
2024-05-09T12:08:35.641Z,34.54
2024-05-09T12:11:02.557Z,33.59
2024-05-09T12:13:34.611Z,33.31
2024-05-09T12:16:01.765Z,32.92
2024-05-09T12:18:31.480Z,32.56
2024-05-09T12:20:58.323Z,31.12
2024-05-09T12:23:27.662Z,31.00
2024-05-09T12:25:54.551Z,30.34
2024-05-09T12:28:24.176Z,30.67
2024-05-09T12:30:53.756Z,31.88
2024-05-09T12:33:23.124Z,31.73
2024-05-09T12:35:51.199Z,32.95
2024-05-09T12:38:20.910Z,32.12
2024-05-09T12:40:47.769Z,32.68
2024-05-09T12:43:17.264Z,32.15
2024-05-09T12:45:44.148Z,33.01
2024-05-09T12:48:16.438Z,33.83
2024-05-09T12:50:43.373Z,33.43
2024-05-09T12:53:13.009Z,31.50
2024-05-09T12:55:47.968Z,30.79
2024-05-09T12:58:24.177Z,31.05
2024-05-09T13:00:51.770Z,32.18
2024-05-09T13:03:24.249Z,30.85
2024-05-09T13:05:51.828Z,31.37
2024-05-09T13:08:22.455Z,32.46
2024-05-09T13:10:50.388Z,30.63
2024-05-09T13:13:20.079Z,32.49
2024-05-09T13:15:47.073Z,31.03
2024-05-09T13:18:16.721Z,30.90
2024-05-09T13:20:46.270Z,30.14
2024-05-09T13:23:15.609Z,31.04
2024-05-09T13:25:42.619Z,33.66
2024-05-09T13:28:12.305Z,32.90
2024-05-09T13:30:41.703Z,32.30
2024-05-09T13:33:12.867Z,32.63
2024-05-09T13:35:47.207Z,33.56
2024-05-09T13:38:22.548Z,32.77
2024-05-09T13:40:50.326Z,32.90
2024-05-09T13:43:21.830Z,33.61
2024-05-09T13:45:48.904Z,33.89
2024-05-09T13:48:19.637Z,31.29
2024-05-09T13:50:46.705Z,30.96
2024-05-09T13:53:16.113Z,32.18
2024-05-09T13:55:45.667Z,32.69
2024-05-09T13:58:15.230Z,33.27
2024-05-09T14:00:47.032Z,34.23
2024-05-09T14:03:20.061Z,34.78
2024-05-09T14:05:48.176Z,33.77
2024-05-09T14:08:19.417Z,32.56
2024-05-09T14:10:49.304Z,33.78
2024-05-09T14:13:18.967Z,33.79
2024-05-09T14:15:46.147Z,33.92
2024-05-09T14:18:15.888Z,32.90
2024-05-09T14:20:43.081Z,33.33
2024-05-09T14:23:12.929Z,33.17
2024-05-09T14:25:42.808Z,33.60
2024-05-09T14:28:15.943Z,34.24
2024-05-09T14:30:43.104Z,34.08
2024-05-09T14:33:12.754Z,33.77
2024-05-09T14:35:39.661Z,33.32
2024-05-09T14:38:09.855Z,32.54
2024-05-09T14:40:42.427Z,32.72
2024-05-09T14:43:17.080Z,32.34
2024-05-09T14:45:44.738Z,32.83
2024-05-09T14:48:14.649Z,32.71
2024-05-09T14:50:41.800Z,33.73
2024-05-09T14:53:12.688Z,32.89
2024-05-09T14:55:41.707Z,32.25
2024-05-09T14:58:13.604Z,33.35
2024-05-09T15:00:49.850Z,33.73
2024-05-09T15:03:22.004Z,34.36
2024-05-09T15:05:50.366Z,35.50
2024-05-09T15:08:21.011Z,34.03
2024-05-09T15:10:49.868Z,34.95
2024-05-09T15:13:20.109Z,34.60
2024-05-09T15:15:49.832Z,33.89
2024-05-09T15:18:19.763Z,32.89
2024-05-09T15:20:47.063Z,32.33
2024-05-09T15:23:16.476Z,32.93
2024-05-09T15:25:44.684Z,32.64
2024-05-09T15:28:14.238Z,33.30
2024-05-09T15:30:45.421Z,34.88
2024-05-09T15:33:18.757Z,34.66
2024-05-09T15:35:46.763Z,34.22
2024-05-09T15:38:17.793Z,33.84
2024-05-09T15:40:44.818Z,33.79
2024-05-09T15:43:14.766Z,33.87
2024-05-09T15:45:41.962Z,34.74
2024-05-09T15:48:12.356Z,36.04
2024-05-09T15:50:42.848Z,36.09
2024-05-09T15:53:13.852Z,36.19
2024-05-09T15:55:41.976Z,36.21
2024-05-09T15:58:12.272Z,37.82
2024-05-09T16:00:42.312Z,37.77
2024-05-09T16:03:14.714Z,37.07
2024-05-09T16:05:45.547Z,37.04
2024-05-09T16:08:16.720Z,36.68
2024-05-09T16:10:45.979Z,36.04
2024-05-09T16:13:17.342Z,35.96
2024-05-09T16:15:44.751Z,36.03
2024-05-09T16:18:15.060Z,36.40
2024-05-09T16:20:46.418Z,36.11
2024-05-09T16:23:17.861Z,36.42
2024-05-09T16:25:47.481Z,36.53
2024-05-09T16:28:17.055Z,36.64
2024-05-09T16:30:43.961Z,36.68
2024-05-09T16:33:13.739Z,36.04
2024-05-09T16:35:41.006Z,36.59
2024-05-09T16:38:13.292Z,37.11
2024-05-09T16:40:41.354Z,37.11
2024-05-09T16:43:12.140Z,37.16
2024-05-09T16:45:41.040Z,37.33
2024-05-09T16:48:11.664Z,37.66
2024-05-09T16:50:38.918Z,37.72
2024-05-09T16:53:08.684Z,37.54
2024-05-09T16:55:38.478Z,37.29
2024-05-09T17:00:41.460Z,38.10
2024-05-09T17:03:15.670Z,39.81
2024-05-09T17:05:43.921Z,38.67
2024-05-09T17:08:13.822Z,37.78
2024-05-09T17:10:43.406Z,38.33
2024-05-09T17:13:12.848Z,37.55
2024-05-09T17:15:42.321Z,38.67
2024-05-09T17:18:12.513Z,40.01
2024-05-09T17:20:39.276Z,40.07
2024-05-09T17:23:13.445Z,41.04
2024-05-09T17:25:43.766Z,41.34
2024-05-09T17:28:13.611Z,41.79
2024-05-09T17:30:42.201Z,41.97
2024-05-09T17:33:13.390Z,41.31
2024-05-09T17:35:41.376Z,41.80
2024-05-09T17:38:11.027Z,41.60
2024-05-09T17:40:40.658Z,41.73
2024-05-09T17:43:10.973Z,42.05
2024-05-09T17:45:41.622Z,42.55
2024-05-09T17:48:10.369Z,43.23
2024-05-09T17:50:41.620Z,43.24
2024-05-09T17:53:09.362Z,42.95
2024-05-09T17:55:38.896Z,44.13
2024-05-09T17:58:06.079Z,43.53
2024-05-09T18:00:41.156Z,43.25
2024-05-09T18:03:11.088Z,44.30
2024-05-09T18:05:41.728Z,44.64
2024-05-09T18:08:09.120Z,43.96
2024-05-09T18:10:40.412Z,45.47
2024-05-09T18:13:08.306Z,45.19
2024-05-09T18:15:41.072Z,46.60
2024-05-09T18:18:09.171Z,46.38
2024-05-09T18:20:43.911Z,46.22
2024-05-09T18:23:14.609Z,46.80
2024-05-09T18:25:45.387Z,47.13
2024-05-09T18:28:12.500Z,47.44
2024-05-09T18:30:44.842Z,48.35
2024-05-09T18:33:12.281Z,48.55
2024-05-09T18:35:43.779Z,49.44
2024-05-09T18:38:11.093Z,50.09
2024-05-09T18:40:42.812Z,50.19
2024-05-09T18:43:11.133Z,51.42
2024-05-09T18:45:40.703Z,52.56
2024-05-09T18:48:11.635Z,52.64
2024-05-09T18:50:41.807Z,54.85
2024-05-09T18:53:09.874Z,55.10
2024-05-09T18:55:39.397Z,56.03
2024-05-09T18:58:06.884Z,57.07
2024-05-09T19:00:39.137Z,58.43
2024-05-09T19:03:13.290Z,58.58
2024-05-09T19:05:45.490Z,60.53
2024-05-09T19:08:13.327Z,61.93
2024-05-09T19:10:45.377Z,60.78
2024-05-09T19:13:13.919Z,58.84
2024-05-09T19:15:44.805Z,54.67
2024-05-09T19:18:15.219Z,55.30
2024-05-09T19:20:45.164Z,55.67
2024-05-09T19:23:12.215Z,55.08
2024-05-09T19:25:41.619Z,59.57
2024-05-09T19:28:08.650Z,63.16
2024-05-09T19:30:41.429Z,64.57
2024-05-09T19:33:10.914Z,63.78
2024-05-09T19:35:44.428Z,65.19
2024-05-09T19:38:11.988Z,66.94
2024-05-09T19:40:41.483Z,67.60
2024-05-09T19:43:08.572Z,68.45
2024-05-09T19:45:38.126Z,69.78
2024-05-09T19:48:06.570Z,71.37
2024-05-09T19:50:42.057Z,71.94
2024-05-09T19:53:14.349Z,72.86
2024-05-09T19:55:44.383Z,73.94
2024-05-09T19:58:12.035Z,74.12
2024-05-09T20:00:43.772Z,75.19
2024-05-09T20:03:12.186Z,74.90
2024-05-09T20:05:42.083Z,76.42
2024-05-09T20:08:08.932Z,77.36
2024-05-09T20:10:41.075Z,77.56
2024-05-09T20:13:08.579Z,77.71
2024-05-09T20:15:38.744Z,78.85
2024-05-09T20:18:08.714Z,79.28
2024-05-09T20:20:39.699Z,78.89
2024-05-09T20:23:12.178Z,78.78
2024-05-09T20:25:42.158Z,81.28
2024-05-09T20:28:11.723Z,81.88
2024-05-09T20:30:38.698Z,81.52
2024-05-09T20:33:09.621Z,82.40
2024-05-09T20:35:37.078Z,82.44
2024-05-09T20:38:07.070Z,83.07
2024-05-09T20:40:37.626Z,83.12
2024-05-09T20:43:11.697Z,84.16
2024-05-09T20:45:39.526Z,84.40
2024-05-09T20:48:11.339Z,85.83
2024-05-09T20:50:41.272Z,86.16
2024-05-09T20:53:14.526Z,87.11
2024-05-09T20:55:42.124Z,88.18
2024-05-09T20:58:14.285Z,87.60
2024-05-09T21:00:44.202Z,88.22
2024-05-09T21:03:17.223Z,89.61
2024-05-09T21:05:44.803Z,89.50
2024-05-09T21:08:14.440Z,90.50
2024-05-09T21:10:41.480Z,90.38
2024-05-09T21:13:11.171Z,90.38
2024-05-09T21:15:40.893Z,90.84
2024-05-09T21:18:10.524Z,91.62
2024-05-09T21:20:37.619Z,90.68
2024-05-09T21:23:07.386Z,92.00
2024-05-09T21:25:34.259Z,92.17
2024-05-09T21:28:03.619Z,92.52
2024-05-09T21:30:38.742Z,93.27
2024-05-09T21:33:15.324Z,92.31
2024-05-09T21:35:42.626Z,92.89
2024-05-09T21:38:13.383Z,93.35
2024-05-09T21:40:40.362Z,93.45
2024-05-09T21:43:10.071Z,93.98
2024-05-09T21:45:37.393Z,93.94
2024-05-09T21:48:08.045Z,95.48
2024-05-09T21:50:41.008Z,96.07
2024-05-09T21:53:12.602Z,95.96
2024-05-09T21:55:39.994Z,97.09
2024-05-09T21:58:10.487Z,96.72
2024-05-09T22:00:39.482Z,96.99
2024-05-09T22:03:10.879Z,97.43
2024-05-09T22:05:43.620Z,97.82
2024-05-09T22:08:13.285Z,98.44
2024-05-09T22:10:40.142Z,99.05
2024-05-09T22:13:09.780Z,99.52
2024-05-09T22:15:39.050Z,98.54
2024-05-09T22:18:10.636Z,99.13
2024-05-09T22:20:45.144Z,99.30
2024-05-09T22:23:16.028Z,99.98
2024-05-09T22:25:43.953Z,100.00
2024-05-09T22:28:16.082Z,100.00
2024-05-09T22:30:45.535Z,100.00
2024-05-09T22:33:15.501Z,100.00
2024-05-09T22:35:45.383Z,100.00
2024-05-09T22:38:14.943Z,100.00
2024-05-09T22:40:47.539Z,100.00
2024-05-09T22:43:21.473Z,100.00
2024-05-09T22:45:50.501Z,100.00
2024-05-09T22:48:20.455Z,100.00
2024-05-09T22:50:50.038Z,100.00
2024-05-09T22:53:19.580Z,100.00
2024-05-09T22:55:46.305Z,100.00
2024-05-09T22:58:15.800Z,100.00
2024-05-09T23:00:42.905Z,100.00
2024-05-09T23:03:14.046Z,100.00
2024-05-09T23:05:40.816Z,100.00
2024-05-09T23:08:12.976Z,100.00
2024-05-09T23:10:39.878Z,100.00
2024-05-09T23:13:09.375Z,100.00
2024-05-09T23:15:37.041Z,100.00
2024-05-09T23:18:07.053Z,100.00
2024-05-09T23:20:38.276Z,100.00
2024-05-09T23:23:10.541Z,100.00
2024-05-09T23:25:41.646Z,100.00
2024-05-09T23:28:11.510Z,100.00
2024-05-09T23:30:40.637Z,100.00
2024-05-09T23:33:13.288Z,100.00
2024-05-09T23:35:42.210Z,100.00
2024-05-09T23:38:11.963Z,100.00
2024-05-09T23:40:42.525Z,100.00
2024-05-09T23:43:13.192Z,100.00
2024-05-09T23:45:40.427Z,100.00
2024-05-09T23:48:11.157Z,100.00
2024-05-09T23:50:39.800Z,100.00
2024-05-09T23:53:10.830Z,100.00
2024-05-09T23:55:38.383Z,100.00
2024-05-09T23:58:11.375Z,100.00
